createdAt,value
2023-05-14T00:00:13.870Z,100693.03
2023-05-14T00:03:41.837Z,100696.47
2023-05-14T00:07:07.468Z,100692.69
2023-05-14T00:10:32.632Z,100695.03
2023-05-14T00:13:57.527Z,100685.91
2023-05-14T00:17:25.567Z,100682.41
2023-05-14T00:20:55.586Z,100690.25
2023-05-14T00:24:21.204Z,100687.25
2023-05-14T00:27:45.845Z,100685.22
2023-05-14T00:31:10.120Z,100676.34
2023-05-14T00:34:36.172Z,100675.34
2023-05-14T00:38:01.324Z,100679.94
2023-05-14T00:41:26.039Z,100674.50
2023-05-14T00:44:51.858Z,100676.22
2023-05-14T00:48:16.862Z,100663.75
2023-05-14T00:51:47.613Z,100654.91
2023-05-14T00:55:16.920Z,100663.81
2023-05-14T00:58:43.966Z,100657.72
2023-05-14T01:02:09.864Z,100645.69
2023-05-14T01:05:40.243Z,100646.28
2023-05-14T01:09:08.861Z,100635.75
2023-05-14T01:12:37.164Z,100635.72
2023-05-14T01:16:03.026Z,100623.97
2023-05-14T01:19:32.914Z,100628.44
2023-05-14T01:23:00.624Z,100624.91
2023-05-14T01:26:27.540Z,100634.66
2023-05-14T01:29:56.565Z,100627.84
2023-05-14T01:33:23.089Z,100625.38
2023-05-14T01:36:49.219Z,100619.31
2023-05-14T01:40:20.332Z,100611.56
2023-05-14T01:43:46.320Z,100611.09
2023-05-14T01:47:12.483Z,100602.53
2023-05-14T01:50:37.387Z,100608.53
2023-05-14T01:54:04.413Z,100595.25
2023-05-14T01:57:32.314Z,100592.72
2023-05-14T02:00:58.733Z,100590.94
2023-05-14T02:04:25.109Z,100581.22
2023-05-14T02:07:50.689Z,100581.25
2023-05-14T02:11:16.784Z,100581.06
2023-05-14T02:14:44.687Z,100567.00
2023-05-14T02:18:09.779Z,100568.47
2023-05-14T02:21:35.105Z,100568.44
2023-05-14T02:25:00.628Z,100576.34
2023-05-14T02:28:26.548Z,100575.13
2023-05-14T02:31:54.578Z,100574.50
2023-05-14T02:35:20.879Z,100569.50
2023-05-14T02:38:46.834Z,100574.12
2023-05-14T02:42:13.271Z,100584.78
2023-05-14T02:45:38.398Z,100583.41
2023-05-14T02:49:05.712Z,100573.25
2023-05-14T02:52:31.221Z,100575.81
2023-05-14T02:55:57.327Z,100584.22
2023-05-14T02:59:22.875Z,100579.72
2023-05-14T03:02:49.718Z,100574.16
2023-05-14T03:06:17.613Z,100570.94
2023-05-14T03:09:43.528Z,100572.97
2023-05-14T03:13:09.034Z,100577.62
2023-05-14T03:16:35.623Z,100581.78
2023-05-14T03:20:02.243Z,100575.28
2023-05-14T03:23:30.463Z,100575.00
2023-05-14T03:26:55.727Z,100569.31
2023-05-14T03:30:23.085Z,100570.94
2023-05-14T03:33:49.427Z,100570.28
2023-05-14T03:37:16.899Z,100564.00
2023-05-14T03:40:43.801Z,100561.44
2023-05-14T03:44:09.874Z,100575.09
2023-05-14T03:47:34.646Z,100580.50
2023-05-14T03:50:59.991Z,100577.41
2023-05-14T03:54:25.864Z,100573.72
2023-05-14T03:57:53.877Z,100559.31
2023-05-14T04:01:19.328Z,100554.75
2023-05-14T04:04:46.030Z,100546.19
2023-05-14T04:08:11.268Z,100550.22
2023-05-14T04:11:37.545Z,100558.09
2023-05-14T04:15:04.866Z,100560.81
2023-05-14T04:18:31.809Z,100562.75
2023-05-14T04:21:58.130Z,100571.78
2023-05-14T04:25:25.013Z,100558.78
2023-05-14T04:28:50.578Z,100558.31
2023-05-14T04:32:18.515Z,100558.59
2023-05-14T04:35:46.265Z,100556.66
2023-05-14T04:39:14.683Z,100558.38
2023-05-14T04:42:41.729Z,100559.44
2023-05-14T04:46:08.457Z,100553.50
2023-05-14T04:49:35.408Z,100558.19
2023-05-14T04:53:01.015Z,100559.44
2023-05-14T04:56:26.148Z,100560.00
2023-05-14T04:59:52.690Z,100545.03
2023-05-14T05:03:18.637Z,100530.94
2023-05-14T05:06:45.536Z,100538.94
2023-05-14T05:10:10.990Z,100536.31
2023-05-14T05:13:35.583Z,100524.75
2023-05-14T05:16:59.977Z,100527.91
2023-05-14T05:20:26.007Z,100528.03
2023-05-14T05:23:53.643Z,100527.66
2023-05-14T05:27:21.650Z,100529.78
2023-05-14T05:30:46.759Z,100526.78
2023-05-14T05:34:11.324Z,100527.03
2023-05-14T05:37:35.209Z,100529.44
2023-05-14T05:41:01.786Z,100523.47
2023-05-14T05:44:27.902Z,100534.66
2023-05-14T05:47:55.326Z,100532.75
2023-05-14T05:51:21.970Z,100537.06
2023-05-14T05:54:47.369Z,100544.44
2023-05-14T05:58:16.264Z,100543.44
2023-05-14T06:01:43.934Z,100533.31
2023-05-14T06:05:09.697Z,100537.97
2023-05-14T06:08:34.311Z,100536.88
2023-05-14T06:11:58.847Z,100536.34
2023-05-14T06:15:26.889Z,100544.34
2023-05-14T06:18:52.997Z,100548.81
2023-05-14T06:22:18.011Z,100555.16
2023-05-14T06:25:43.465Z,100554.28
2023-05-14T06:29:07.391Z,100553.53
2023-05-14T06:32:33.200Z,100552.78
2023-05-14T06:35:57.450Z,100543.06
2023-05-14T06:39:21.827Z,100545.34
2023-05-14T06:42:46.022Z,100542.63
2023-05-14T06:46:11.123Z,100539.16
2023-05-14T06:49:39.066Z,100542.41
2023-05-14T06:53:06.730Z,100545.97
2023-05-14T06:56:32.704Z,100544.78
2023-05-14T06:59:58.749Z,100530.53
2023-05-14T07:03:23.693Z,100533.53
2023-05-14T07:06:51.004Z,100528.87
2023-05-14T07:10:17.745Z,100518.94
2023-05-14T07:13:43.975Z,100511.34
2023-05-14T07:17:10.677Z,100511.91
2023-05-14T07:20:40.849Z,100513.69
2023-05-14T07:24:09.783Z,100500.44
2023-05-14T07:27:35.380Z,100493.19
2023-05-14T07:31:00.208Z,100493.63
2023-05-14T07:34:25.775Z,100492.19
2023-05-14T07:37:50.296Z,100494.44
2023-05-14T07:41:16.732Z,100490.69
2023-05-14T07:44:41.712Z,100487.81
2023-05-14T07:48:07.561Z,100483.41
2023-05-14T07:51:35.534Z,100491.47
2023-05-14T07:55:02.177Z,100480.87
2023-05-14T07:58:33.228Z,100481.00
2023-05-14T08:02:00.645Z,100480.59
2023-05-14T08:05:26.110Z,100480.94
2023-05-14T08:08:51.423Z,100482.31
2023-05-14T08:12:18.989Z,100467.50
2023-05-14T08:15:47.132Z,100457.84
2023-05-14T08:19:14.987Z,100463.03
2023-05-14T08:22:44.714Z,100466.09
2023-05-14T08:26:13.795Z,100448.00
2023-05-14T08:29:39.507Z,100440.72
2023-05-14T08:33:08.318Z,100434.38
2023-05-14T08:36:33.292Z,100425.00
2023-05-14T08:39:58.387Z,100427.59
2023-05-14T08:43:24.126Z,100426.09
2023-05-14T08:46:49.423Z,100429.91
2023-05-14T08:50:16.481Z,100426.94
2023-05-14T08:53:45.180Z,100424.22
2023-05-14T08:57:12.934Z,100410.72
2023-05-14T09:00:40.104Z,100409.47
2023-05-14T09:04:09.235Z,100405.75
2023-05-14T09:07:36.247Z,100405.03
2023-05-14T09:11:01.533Z,100399.00
2023-05-14T09:14:26.898Z,100397.88
2023-05-14T09:17:52.538Z,100396.87
2023-05-14T09:21:18.442Z,100386.03
2023-05-14T09:24:46.803Z,100391.69
2023-05-14T09:28:14.333Z,100391.44
2023-05-14T09:31:39.914Z,100394.28
2023-05-14T09:35:13.932Z,100389.87
2023-05-14T09:38:39.449Z,100384.56
2023-05-14T09:42:06.792Z,100374.22
2023-05-14T09:45:32.387Z,100378.53
2023-05-14T09:48:59.080Z,100377.41
2023-05-14T09:52:24.561Z,100373.47
2023-05-14T09:55:51.747Z,100362.63
2023-05-14T09:59:19.219Z,100352.06
2023-05-14T10:02:44.980Z,100361.19
2023-05-14T10:06:11.881Z,100339.75
2023-05-14T10:09:38.330Z,100335.06
2023-05-14T10:13:06.055Z,100341.13
2023-05-14T10:16:34.848Z,100339.50
2023-05-14T10:20:01.270Z,100321.78
2023-05-14T10:23:27.588Z,100299.72
2023-05-14T10:26:53.789Z,100283.19
2023-05-14T10:30:22.156Z,100278.13
2023-05-14T10:33:55.766Z,100247.66
2023-05-14T10:37:22.043Z,100242.00
2023-05-14T10:40:49.300Z,100249.09
2023-05-14T10:44:14.059Z,100277.19
2023-05-14T10:47:39.193Z,100285.59
2023-05-14T10:51:05.952Z,100283.16
2023-05-14T10:54:32.539Z,100289.97
2023-05-14T10:57:58.116Z,100283.78
2023-05-14T11:01:28.884Z,100285.16
2023-05-14T11:05:04.627Z,100289.72
2023-05-14T11:08:34.430Z,100280.97
2023-05-14T11:12:01.236Z,100263.84
2023-05-14T11:15:29.091Z,100260.03
2023-05-14T11:18:57.498Z,100254.13
2023-05-14T11:22:24.161Z,100245.25
2023-05-14T11:25:50.704Z,100237.28
2023-05-14T11:29:16.124Z,100255.25
2023-05-14T11:32:42.292Z,100240.00
2023-05-14T11:36:08.814Z,100237.41
2023-05-14T11:39:35.066Z,100242.50
2023-05-14T11:43:02.629Z,100232.38
2023-05-14T11:46:28.987Z,100235.78
2023-05-14T11:49:55.200Z,100233.06
2023-05-14T11:53:21.538Z,100235.44
2023-05-14T11:56:53.094Z,100225.19
2023-05-14T12:00:24.893Z,100226.50
2023-05-14T12:03:54.108Z,100220.94
2023-05-14T12:07:21.372Z,100214.06
2023-05-14T12:10:49.338Z,100205.69
2023-05-14T12:14:15.723Z,100196.09
2023-05-14T12:17:42.660Z,100198.72
2023-05-14T12:21:08.889Z,100198.41
2023-05-14T12:24:35.960Z,100186.63
2023-05-14T12:28:01.205Z,100175.03
2023-05-14T12:31:32.007Z,100170.84
2023-05-14T12:34:59.906Z,100161.25
2023-05-14T12:38:27.171Z,100157.22
2023-05-14T12:41:52.793Z,100156.84
2023-05-14T12:45:18.362Z,100158.91
2023-05-14T12:48:44.031Z,100153.88
2023-05-14T12:55:43.063Z,100155.41
2023-05-14T12:59:12.063Z,100144.56
2023-05-14T13:02:43.163Z,100141.47
2023-05-14T13:06:13.739Z,100133.50
2023-05-14T13:09:41.962Z,100134.97
2023-05-14T13:13:08.882Z,100136.28
2023-05-14T13:16:34.188Z,100117.00
2023-05-14T13:20:00.191Z,100111.19
2023-05-14T13:23:25.370Z,100115.37
2023-05-14T13:26:55.967Z,100113.41
2023-05-14T13:30:22.708Z,100111.19
2023-05-14T13:33:49.914Z,100108.75
2023-05-14T13:37:15.236Z,100104.81
2023-05-14T13:40:40.484Z,100101.37
2023-05-14T13:44:06.628Z,100094.97
2023-05-14T13:47:31.970Z,100098.66
2023-05-14T13:50:56.244Z,100099.28
2023-05-14T13:54:22.786Z,100094.50
2023-05-14T13:57:48.499Z,100096.47
2023-05-14T14:01:17.911Z,100091.66
2023-05-14T14:04:44.786Z,100089.22
2023-05-14T14:08:22.525Z,100090.91
2023-05-14T14:11:49.020Z,100090.66
2023-05-14T14:15:14.740Z,100077.25
2023-05-14T14:18:43.707Z,100073.81
2023-05-14T14:22:08.948Z,100060.94
2023-05-14T14:25:34.978Z,100056.25
2023-05-14T14:29:01.415Z,100063.25
2023-05-14T14:32:27.190Z,100051.72
2023-05-14T14:35:54.206Z,100056.25
2023-05-14T14:39:20.731Z,100051.72
2023-05-14T14:42:46.051Z,100056.25
2023-05-14T14:46:11.331Z,100053.78
2023-05-14T14:49:37.082Z,100048.13
2023-05-14T14:53:03.826Z,100042.81
2023-05-14T14:56:31.644Z,100020.09
2023-05-14T14:59:57.403Z,100011.38
2023-05-14T15:03:22.349Z,100002.69
2023-05-14T15:06:48.055Z,99995.56
2023-05-14T15:10:14.023Z,100007.84
2023-05-14T15:13:40.737Z,100008.34
2023-05-14T15:17:05.851Z,100005.00
2023-05-14T15:20:31.028Z,99997.28
2023-05-14T15:23:57.078Z,100001.44
2023-05-14T15:27:25.042Z,99994.56
2023-05-14T15:30:51.292Z,99993.81
2023-05-14T15:34:18.002Z,99998.59
2023-05-14T15:37:44.071Z,99987.28
2023-05-14T15:41:09.178Z,99991.88
2023-05-14T15:44:37.396Z,99990.00
2023-05-14T15:48:03.346Z,99990.12
2023-05-14T15:51:27.834Z,99985.69
2023-05-14T15:54:53.608Z,99974.66
2023-05-14T15:58:18.171Z,99977.84
2023-05-14T16:01:45.174Z,99971.97
2023-05-14T16:05:11.551Z,99962.87
2023-05-14T16:08:38.734Z,99950.50
2023-05-14T16:12:04.862Z,99935.34
2023-05-14T16:15:29.803Z,99938.69
2023-05-14T16:18:56.179Z,99942.00
2023-05-14T16:22:20.458Z,99936.84
2023-05-14T16:25:47.980Z,99929.38
2023-05-14T16:29:16.466Z,99923.81
2023-05-14T16:32:42.517Z,99935.62
2023-05-14T16:36:08.936Z,99956.47
2023-05-14T16:39:34.535Z,99958.06
2023-05-14T16:42:59.263Z,99949.63
2023-05-14T16:46:24.302Z,99921.12
2023-05-14T16:49:49.567Z,99919.91
2023-05-14T16:53:16.978Z,99898.41
2023-05-14T16:56:42.869Z,99901.47
2023-05-14T17:00:09.818Z,99924.44
2023-05-14T17:03:34.615Z,99905.44
2023-05-14T17:06:59.712Z,99903.72
2023-05-14T17:10:25.764Z,99898.94
2023-05-14T17:13:50.608Z,99902.25
2023-05-14T17:17:14.743Z,99911.81
2023-05-14T17:20:39.581Z,99905.41
2023-05-14T17:24:04.422Z,99893.53
2023-05-14T17:27:33.944Z,99885.75
2023-05-14T17:30:59.044Z,99887.47
2023-05-14T17:34:24.717Z,99873.25
2023-05-14T17:37:50.039Z,99863.81
2023-05-14T17:41:15.815Z,99863.28
2023-05-14T17:44:42.024Z,99858.91
2023-05-14T17:48:08.006Z,99852.12
2023-05-14T17:51:33.057Z,99844.50
2023-05-14T17:54:58.830Z,99849.81
2023-05-14T17:58:23.430Z,99849.56
2023-05-14T18:01:50.581Z,99856.91
2023-05-14T18:05:15.491Z,99857.03
2023-05-14T18:08:40.458Z,99854.72
2023-05-14T18:12:05.859Z,99848.31
2023-05-14T18:15:31.987Z,99834.78
2023-05-14T18:18:58.632Z,99835.28
2023-05-14T18:22:23.150Z,99834.75
2023-05-14T18:25:49.028Z,99828.75
2023-05-14T18:29:13.372Z,99837.72
2023-05-14T18:32:51.253Z,99852.09
2023-05-14T18:36:19.436Z,99824.31
2023-05-14T18:39:44.798Z,99844.31
2023-05-14T18:43:14.372Z,99844.44
2023-05-14T18:46:39.469Z,99828.34
2023-05-14T18:50:05.460Z,99838.19
2023-05-14T18:53:31.908Z,99834.09
2023-05-14T18:56:55.890Z,99835.84
2023-05-14T19:00:21.282Z,99836.84
2023-05-14T19:03:46.360Z,99833.28
2023-05-14T19:07:13.217Z,99819.13
2023-05-14T19:14:20.136Z,99832.63
2023-05-14T19:17:44.165Z,99837.88
2023-05-14T19:21:08.956Z,99839.03
2023-05-14T19:24:33.750Z,99824.41
2023-05-14T19:28:14.790Z,99822.66
2023-05-14T19:31:40.874Z,99815.41
2023-05-14T19:35:08.749Z,99820.81
2023-05-14T19:38:32.990Z,99802.13
2023-05-14T19:41:58.757Z,99790.09
2023-05-14T19:45:25.074Z,99786.88
2023-05-14T19:48:49.752Z,99792.09
2023-05-14T19:52:14.285Z,99789.13
2023-05-14T19:55:38.716Z,99780.63
2023-05-14T19:59:02.962Z,99781.41
2023-05-14T20:02:30.030Z,99774.34
2023-05-14T20:05:54.831Z,99769.19
2023-05-14T20:09:20.769Z,99771.78
2023-05-14T20:12:46.474Z,99756.72
2023-05-14T20:16:10.872Z,99757.31
2023-05-14T20:19:37.936Z,99757.25
2023-05-14T20:23:02.372Z,99771.31
2023-05-14T20:26:26.851Z,99759.66
2023-05-14T20:29:52.128Z,99759.78
2023-05-14T20:33:17.287Z,99757.94
2023-05-14T20:36:43.691Z,99747.44
2023-05-14T20:40:10.909Z,99743.44
2023-05-14T20:43:34.801Z,99741.44
2023-05-14T20:46:59.453Z,99744.81
2023-05-14T20:50:23.839Z,99764.59
2023-05-14T20:53:50.281Z,99782.47
2023-05-14T20:57:15.830Z,99805.19
2023-05-14T21:00:40.873Z,99819.88
2023-05-14T21:04:04.899Z,99821.28
2023-05-14T21:07:29.105Z,99814.03
2023-05-14T21:10:54.786Z,99798.53
2023-05-14T21:14:18.950Z,99787.13
2023-05-14T21:17:43.027Z,99778.44
2023-05-14T21:21:08.040Z,99774.56
2023-05-14T21:24:32.431Z,99778.09
2023-05-14T21:27:58.939Z,99762.41
2023-05-14T21:31:23.627Z,99754.12
2023-05-14T21:34:48.538Z,99748.00
2023-05-14T21:38:12.576Z,99741.03
2023-05-14T21:41:37.019Z,99723.28
2023-05-14T21:45:05.125Z,99705.47
2023-05-14T21:48:40.437Z,99712.88
2023-05-14T21:52:04.813Z,99703.13
2023-05-14T21:55:29.150Z,99696.91
2023-05-14T21:58:57.480Z,99701.44
2023-05-14T22:02:23.503Z,99691.69
2023-05-14T22:05:47.848Z,99687.19
2023-05-14T22:09:12.566Z,99681.84
2023-05-14T22:12:37.162Z,99677.91
2023-05-14T22:16:12.293Z,99675.66
2023-05-14T22:19:39.597Z,99677.75
2023-05-14T22:23:03.777Z,99665.50
2023-05-14T22:26:28.791Z,99686.34
2023-05-14T22:29:53.358Z,99676.69
2023-05-14T22:33:19.837Z,99669.41
2023-05-14T22:36:54.145Z,99673.09
2023-05-14T22:40:18.940Z,99661.19
2023-05-14T22:43:43.412Z,99667.09
2023-05-14T22:47:08.216Z,99655.31
2023-05-14T22:50:31.935Z,99656.53
2023-05-14T22:53:57.310Z,99654.56
2023-05-14T22:57:21.397Z,99656.25
2023-05-14T23:00:45.897Z,99647.62
2023-05-14T23:04:10.004Z,99649.28
2023-05-14T23:07:34.980Z,99649.28
2023-05-14T23:11:00.717Z,99641.03
2023-05-14T23:14:25.174Z,99654.97
2023-05-14T23:17:49.340Z,99650.09
2023-05-14T23:21:14.585Z,99642.19
2023-05-14T23:24:39.033Z,99638.66
2023-05-14T23:28:04.896Z,99628.72
2023-05-14T23:31:29.068Z,99627.47
2023-05-14T23:34:53.626Z,99611.22
2023-05-14T23:38:17.750Z,99615.06
2023-05-14T23:41:42.612Z,99611.59
2023-05-14T23:45:09.022Z,99611.22
2023-05-14T23:48:33.722Z,99596.84
2023-05-14T23:51:57.749Z,99610.34
2023-05-14T23:55:22.183Z,99601.41
2023-05-14T23:58:46.169Z,99595.91
